Time;durP1;ratioP1;P1;durP2;ratioP2;P2;SDS_P1;SDS_P2;PMS_P1;PMS_P2;Temp;Humidity;BMP_temperature;BMP_pressure;BME280_temperature;BME280_humidity;BME280_pressure;Samples;Min_cycle;Max_cycle;Signal;HPM_P1;HPM_P2
2023/08/18 00:00:13;;;;;;;3.23;3.00;;;23.80;99.90;;;24.29;86.22;100550.88;4995936;28;20745;-65
2023/08/18 00:02:40;;;;;;;3.23;2.93;;;23.70;99.90;;;24.28;85.84;100548.41;4976414;28;20742;-64
2023/08/18 00:05:08;;;;;;;4.70;2.70;;;23.70;99.90;;;24.25;85.95;100540.81;5000227;28;21068;-65
2023/08/18 00:07:35;;;;;;;2.77;2.57;;;23.70;99.90;;;24.21;86.30;100536.91;4973651;28;20638;-64
2023/08/18 00:10:03;;;;;;;2.97;2.77;;;23.70;99.90;;;24.19;85.63;100533.63;4984123;28;20650;-64
2023/08/18 00:12:32;;;;;;;3.83;2.90;;;23.60;99.90;;;24.17;85.87;100535.66;4978305;28;20757;-67
2023/08/18 00:14:59;;;;;;;3.00;2.80;;;23.60;99.90;;;24.15;85.83;100535.06;4991347;28;20638;-65
2023/08/18 00:17:25;;;;;;;2.73;2.53;;;23.60;99.90;;;24.13;85.86;100537.91;4996336;28;20646;-64
2023/08/18 00:19:53;;;;;;;3.23;3.03;;;23.60;99.90;;;24.12;85.96;100527.44;4982681;28;20673;-65
2023/08/18 00:22:20;;;;;;;2.90;2.70;;;23.50;99.90;;;24.10;86.30;100529.50;4979706;28;20666;-65
2023/08/18 00:24:47;;;;;;;3.07;2.87;;;23.50;99.90;;;24.08;86.49;100535.03;4990769;28;20638;-65
2023/08/18 00:27:14;;;;;;;4.17;3.20;;;23.50;99.90;;;24.05;86.58;100538.06;5005122;28;20724;-65
2023/08/18 00:29:41;;;;;;;2.70;2.50;;;23.50;99.90;;;24.03;86.84;100531.25;4978257;28;20735;-66
2023/08/18 00:32:08;;;;;;;4.40;3.40;;;23.40;99.90;;;24.03;86.93;100532.09;4987944;28;20630;-65
2023/08/18 00:34:35;;;;;;;3.13;2.87;;;23.50;99.90;;;24.02;87.05;100532.31;4996658;28;20725;-66
2023/08/18 00:37:02;;;;;;;3.67;2.87;;;23.40;99.90;;;24.00;86.55;100534.34;4973723;28;20741;-64
2023/08/18 00:39:29;;;;;;;3.97;3.57;;;23.40;99.90;;;23.97;86.90;100527.56;4983367;28;20630;-66
2023/08/18 00:41:56;;;;;;;3.40;3.17;;;23.40;99.90;;;23.97;86.91;100527.56;4986603;28;20706;-64
2023/08/18 00:44:23;;;;;;;3.23;2.93;;;23.40;99.90;;;23.92;87.59;100527.34;4982054;28;20726;-64
2023/08/18 00:46:50;;;;;;;3.30;3.07;;;23.40;99.90;;;23.90;87.42;100521.38;4999856;28;20641;-64
2023/08/18 00:49:18;;;;;;;3.00;2.70;;;23.40;99.90;;;23.91;87.28;100531.03;4979115;28;20631;-65
2023/08/18 00:51:46;;;;;;;3.37;3.07;;;23.30;99.90;;;23.87;87.53;100522.59;4974113;28;20754;-64
2023/08/18 00:54:14;;;;;;;3.20;2.90;;;23.30;99.90;;;23.85;87.40;100529.16;4985847;28;20746;-64
2023/08/18 00:56:42;;;;;;;3.70;3.37;;;23.30;99.90;;;23.84;87.63;100523.00;4986732;28;20743;-66
2023/08/18 00:59:09;;;;;;;3.90;3.50;;;23.30;99.90;;;23.83;87.55;100525.84;5006264;28;20619;-65
2023/08/18 01:01:37;;;;;;;3.20;2.90;;;23.30;99.90;;;23.82;88.01;100518.91;4981855;28;20667;-65
2023/08/18 01:04:05;;;;;;;4.53;3.67;;;23.20;99.90;;;23.79;88.11;100524.59;4964589;28;20649;-64
2023/08/18 01:06:32;;;;;;;3.60;3.30;;;23.30;99.90;;;23.74;88.25;100521.72;4994384;28;20704;-65
2023/08/18 01:08:59;;;;;;;3.47;3.17;;;23.20;99.90;;;23.69;88.92;100529.47;4967812;28;20675;-64
2023/08/18 01:11:52;;;;;;;3.10;2.90;;;23.10;99.90;;;23.67;88.78;100513.72;4990287;28;20705;-64
2023/08/18 01:14:42;;;;;;;3.43;3.13;;;23.10;99.90;;;23.65;88.89;100512.25;5003563;28;20736;-65
2023/08/18 01:17:24;;;;;;;3.80;3.33;;;23.10;99.90;;;23.64;88.72;100502.59;4977407;28;20675;-65
2023/08/18 01:19:52;;;;;;;3.17;2.97;;;23.10;99.90;;;23.63;89.02;100511.63;4986318;28;20628;-65
2023/08/18 01:22:19;;;;;;;3.50;3.20;;;23.10;99.90;;;23.61;89.21;100509.19;4988975;28;20654;-65
2023/08/18 01:24:46;;;;;;;3.30;3.00;;;23.10;99.90;;;23.58;89.81;100508.72;4998033;28;20688;-65
2023/08/18 01:27:13;;;;;;;3.57;3.27;;;23.00;99.90;;;23.57;89.23;100510.59;4981869;28;20629;-65
2023/08/18 01:29:40;;;;;;;3.53;3.23;;;23.00;99.90;;;23.56;89.33;100505.44;4970009;28;20639;-66
2023/08/18 01:32:08;;;;;;;5.83;3.33;;;23.00;99.90;;;23.53;90.52;100497.84;4972796;28;20681;-66
2023/08/18 01:34:41;;;;;;;3.50;3.20;;;23.00;99.90;;;23.53;89.77;100500.53;4986974;28;20631;-64
2023/08/18 01:37:09;;;;;;;3.10;2.90;;;23.00;99.90;;;23.54;90.11;100507.47;4998076;28;20688;-65
2023/08/18 01:39:37;;;;;;;3.77;3.47;;;23.00;99.90;;;23.54;90.58;100504.81;4990032;28;20698;-63
2023/08/18 01:42:04;;;;;;;4.20;3.00;;;23.00;99.90;;;23.51;90.58;100505.22;4957695;28;21240;-65
2023/08/18 01:44:31;;;;;;;6.67;3.13;;;23.00;99.90;;;23.49;90.63;100510.72;4979313;28;20726;-64
2023/08/18 01:46:58;;;;;;;3.50;3.20;;;23.00;99.90;;;23.49;90.99;100504.59;4980520;28;20627;-64
2023/08/18 01:49:25;;;;;;;4.00;3.60;;;23.00;99.90;;;23.50;91.20;100506.22;4981328;28;20635;-65
2023/08/18 01:51:52;;;;;;;3.87;3.53;;;22.90;99.90;;;23.47;91.03;100501.31;4988015;28;20657;-65
2023/08/18 01:54:19;;;;;;;3.50;3.20;;;23.00;99.90;;;23.44;90.94;100499.03;4997936;28;20745;-64
2023/08/18 01:56:46;;;;;;;3.70;3.40;;;22.90;99.90;;;23.43;91.56;100495.53;4977531;28;20645;-64
2023/08/18 01:59:15;;;;;;;3.27;2.97;;;22.90;99.90;;;23.42;91.77;100495.75;4972197;28;21283;-65
2023/08/18 02:01:41;;;;;;;2.80;2.57;;;22.90;99.90;;;23.39;91.89;100491.63;4978019;28;20749;-64
2023/08/18 02:04:09;;;;;;;2.87;2.77;;;22.90;99.90;;;23.38;92.22;100499.81;4965661;28;21095;-64
2023/08/18 02:06:35;;;;;;;3.40;3.10;;;22.90;99.90;;;23.36;91.92;100493.88;4976756;28;20653;-63
2023/08/18 02:09:03;;;;;;;4.13;3.73;;;22.80;99.90;;;23.35;92.07;100492.22;5003656;28;20815;-64
2023/08/18 02:11:31;;;;;;;4.57;3.73;;;22.80;99.90;;;23.33;91.99;100484.44;4983628;28;20697;-64
2023/08/18 02:13:57;;;;;;;3.03;2.83;;;22.80;99.90;;;23.32;92.32;100482.75;4983998;28;20665;-64
2023/08/18 02:16:24;;;;;;;3.30;3.00;;;22.80;99.90;;;23.29;92.41;100485.81;4991848;28;20630;-64
2023/08/18 02:18:52;;;;;;;2.90;2.70;;;22.80;99.90;;;23.24;92.75;100482.06;4990290;28;20646;-64
2023/08/18 02:21:19;;;;;;;3.10;2.80;;;22.80;99.90;;;23.24;92.75;100485.56;4982751;28;20749;-64
2023/08/18 02:23:46;;;;;;;4.20;3.77;;;22.70;99.90;;;23.22;93.15;100476.13;4986250;28;20737;-64
2023/08/18 02:26:13;;;;;;;3.77;3.47;;;22.70;99.90;;;23.20;93.52;100481.66;4983001;28;21061;-64
2023/08/18 02:28:40;;;;;;;3.03;2.90;;;22.70;99.90;;;23.17;93.43;100480.19;4977884;28;20734;-65
2023/08/18 02:31:08;;;;;;;3.47;3.20;;;22.70;99.90;;;23.17;93.86;100473.25;4984339;28;20654;-65
2023/08/18 02:33:35;;;;;;;3.17;2.97;;;22.70;99.90;;;23.14;93.82;100472.63;4997937;28;20670;-64
2023/08/18 02:36:03;;;;;;;3.83;3.50;;;22.60;99.90;;;23.11;94.27;100480.97;4979804;28;20802;-64
2023/08/18 02:38:30;;;;;;;3.90;3.60;;;22.60;99.90;;;23.10;93.92;100489.16;4990557;28;20646;-65
2023/08/18 02:40:57;;;;;;;3.47;3.17;;;22.60;99.90;;;23.05;94.15;100484.44;4981886;28;20683;-64
2023/08/18 02:43:24;;;;;;;3.30;3.00;;;22.60;99.90;;;23.01;94.83;100487.66;4978636;28;21056;-65
2023/08/18 02:45:56;;;;;;;3.23;2.77;;;22.50;99.90;;;22.98;94.76;100483.56;4981003;28;20675;-65
2023/08/18 02:48:26;;;;;;;3.57;3.27;;;22.50;99.90;;;22.94;94.32;100482.28;4987390;28;21204;-66
2023/08/18 02:51:07;;;;;;;3.33;3.07;;;22.50;99.90;;;22.90;94.50;100481.03;4990954;28;20652;-65
2023/08/18 02:53:37;;;;;;;3.43;3.13;;;22.40;99.90;;;22.87;94.49;100476.09;4980783;28;20706;-65
2023/08/18 02:56:04;;;;;;;4.57;3.20;;;22.40;99.90;;;22.82;94.74;100473.22;4991850;28;21232;-66
2023/08/18 02:58:33;;;;;;;4.60;3.83;;;22.40;99.90;;;22.78;94.79;100463.97;4977430;28;20953;-66
2023/08/18 03:01:03;;;;;;;3.00;2.77;;;22.30;99.90;;;22.77;95.15;100466.81;4971669;28;20765;-65
2023/08/18 03:03:30;;;;;;;2.97;2.77;;;22.30;99.90;;;22.73;94.94;100460.22;4987278;28;20649;-63
2023/08/18 03:06:06;;;;;;;5.13;3.53;;;22.30;99.90;;;22.70;95.17;100466.75;4974084;28;20651;-65
2023/08/18 03:08:35;;;;;;;4.23;3.77;;;22.20;99.90;;;22.67;95.51;100467.16;4986044;28;20666;-65
2023/08/18 03:11:03;;;;;;;3.80;3.50;;;22.20;99.90;;;22.66;95.85;100465.50;4983739;28;21247;-64
2023/08/18 03:13:30;;;;;;;3.30;3.00;;;22.20;99.90;;;22.66;95.44;100470.00;4989122;28;20676;-64
2023/08/18 03:15:57;;;;;;;3.47;3.20;;;22.20;99.90;;;22.66;95.47;100476.13;4989213;28;20643;-65
2023/08/18 03:18:25;;;;;;;2.70;2.60;;;22.20;99.90;;;22.62;95.67;100477.53;4974368;28;20838;-64
2023/08/18 03:21:03;;;;;;;3.57;3.30;;;22.10;99.90;;;22.57;95.62;100479.09;4989679;28;20677;-65
2023/08/18 03:23:30;;;;;;;4.30;3.53;;;22.10;99.90;;;22.57;95.87;100476.44;4993735;28;20741;-66
2023/08/18 03:26:02;;;;;;;4.17;3.57;;;22.10;99.90;;;22.54;95.95;100479.47;4991838;28;20750;-65
2023/08/18 03:28:34;;;;;;;3.73;3.30;;;22.10;99.90;;;22.55;95.83;100481.13;4988108;28;20785;-64
2023/08/18 03:31:03;;;;;;;4.37;3.67;;;22.10;99.90;;;22.55;96.17;100478.47;5007165;28;20654;-61
2023/08/18 03:33:30;;;;;;;3.83;3.47;;;22.10;99.90;;;22.56;96.15;100480.09;4996813;28;20680;-66
2023/08/18 03:35:58;;;;;;;3.33;3.03;;;22.10;99.90;;;22.54;96.33;100484.78;4987430;28;20641;-65
2023/08/18 03:38:26;;;;;;;4.27;3.87;;;22.10;99.90;;;22.51;96.31;100488.66;4991593;28;20760;-65
2023/08/18 03:41:04;;;;;;;3.77;3.47;;;22.00;99.90;;;22.51;96.09;100487.84;4967705;28;20694;-64
2023/08/18 03:43:34;;;;;;;3.53;3.23;;;22.00;99.90;;;22.47;96.23;100492.69;4978386;28;20742;-64
2023/08/18 03:46:22;;;;;;;3.40;3.10;;;22.00;99.90;;;22.47;96.21;100495.34;4968267;28;20722;-65
2023/08/18 03:48:49;;;;;;;4.60;4.20;;;22.00;99.90;;;22.46;96.36;100496.38;4964397;28;20694;-65
2023/08/18 03:51:17;;;;;;;4.30;3.90;;;22.00;99.90;;;22.46;96.11;100501.72;4981462;28;20682;-65
2023/08/18 03:53:44;;;;;;;4.50;3.60;;;22.00;99.90;;;22.44;96.30;100503.72;4976748;28;21104;-65
2023/08/18 03:56:11;;;;;;;3.70;3.40;;;22.00;99.90;;;22.44;96.38;100505.56;4974536;28;20643;-63
2023/08/18 03:58:38;;;;;;;4.63;3.77;;;22.00;99.90;;;22.43;95.94;100496.75;4989205;28;21407;-64
2023/08/18 04:01:08;;;;;;;5.10;4.10;;;22.00;99.90;;;22.40;96.90;100499.81;4990543;28;21076;-65
2023/08/18 04:03:39;;;;;;;8.23;5.10;;;21.90;99.90;;;22.42;96.27;100508.41;4996856;28;20646;-65
2023/08/18 04:06:07;;;;;;;6.00;4.23;;;21.90;99.90;;;22.40;96.56;100502.47;4980824;28;21021;-65
2023/08/18 04:08:39;;;;;;;5.33;4.50;;;21.90;99.90;;;22.42;96.85;100503.09;4969118;28;20713;-65
2023/08/18 04:11:06;;;;;;;5.53;4.60;;;21.90;99.90;;;22.42;96.90;100499.59;4970750;28;20724;-65
2023/08/18 04:13:34;;;;;;;5.67;4.60;;;21.90;99.90;;;22.41;96.89;100501.44;5004965;28;21306;-65
2023/08/18 04:16:02;;;;;;;4.83;4.27;;;21.90;99.90;;;22.40;96.87;100503.25;4988351;28;20696;-65
2023/08/18 04:18:29;;;;;;;4.20;3.80;;;21.90;99.90;;;22.41;97.14;100501.44;4974547;28;20642;-65
2023/08/18 04:20:57;;;;;;;6.03;5.17;;;21.90;99.90;;;22.43;96.35;100502.06;4982047;28;20728;-64
2023/08/18 04:23:23;;;;;;;9.47;4.90;;;22.00;99.90;;;22.42;96.64;100487.94;4983840;28;20665;-64
2023/08/18 04:25:51;;;;;;;5.13;4.63;;;22.00;99.90;;;22.42;96.48;100491.63;4983169;28;20739;-64
2023/08/18 04:28:18;;;;;;;4.60;3.70;;;21.90;99.90;;;22.38;96.35;100493.88;4981756;28;20658;-64
2023/08/18 04:30:48;;;;;;;5.50;4.53;;;21.90;99.90;;;22.37;96.19;100500.19;4973642;28;20742;-65
2023/08/18 04:33:15;;;;;;;6.93;4.90;;;21.90;99.90;;;22.36;96.27;100502.00;4970492;28;20694;-65
2023/08/18 04:35:42;;;;;;;5.63;4.60;;;21.90;99.90;;;22.38;96.57;100505.28;4971481;28;20638;-65
2023/08/18 04:38:10;;;;;;;4.97;4.53;;;21.90;99.90;;;22.37;96.65;100505.50;4979772;28;20638;-65
2023/08/18 04:40:37;;;;;;;5.00;4.50;;;21.90;99.90;;;22.34;96.68;100503.19;4981511;28;20682;-65
2023/08/18 04:43:04;;;;;;;5.00;4.27;;;21.90;99.90;;;22.34;96.66;100509.34;4977010;28;20686;-65
2023/08/18 04:45:31;;;;;;;5.03;3.83;;;21.80;99.90;;;22.34;96.71;100509.34;4979453;28;20642;-68
2023/08/18 04:47:58;;;;;;;5.20;3.60;;;21.80;99.90;;;22.36;96.70;100509.16;4978504;28;20643;-65
2023/08/18 04:50:25;;;;;;;4.60;4.10;;;21.90;99.90;;;22.37;96.84;100511.63;5000350;28;20650;-64
2023/08/18 04:52:52;;;;;;;3.37;3.17;;;21.90;99.90;;;22.39;96.46;100506.13;4961973;28;20648;-66
2023/08/18 04:55:19;;;;;;;5.20;4.57;;;21.90;99.90;;;22.44;96.41;100510.88;4961680;28;20703;-65
2023/08/18 04:57:46;;;;;;;4.70;4.30;;;22.00;99.90;;;22.51;96.04;100517.09;4960364;28;20635;-65
2023/08/18 05:00:14;;;;;;;3.43;3.17;;;22.00;99.90;;;22.58;95.34;100505.50;4960469;28;20777;-64
2023/08/18 05:02:43;;;;;;;4.17;3.77;;;22.10;99.90;;;22.67;94.74;100515.03;4961013;28;20649;-64
2023/08/18 05:05:10;;;;;;;4.70;4.30;;;22.20;99.90;;;22.76;93.85;100508.56;4978779;28;20677;-65
2023/08/18 05:07:37;;;;;;;4.20;3.80;;;22.20;99.90;;;22.85;93.15;100515.38;4980461;28;20638;-63
2023/08/18 05:10:04;;;;;;;6.27;5.20;;;22.40;99.90;;;22.94;92.56;100514.22;4981715;28;20654;-65
2023/08/18 05:12:31;;;;;;;5.00;4.50;;;22.40;99.90;;;23.10;92.38;100519.28;4984812;28;20633;-65
2023/08/18 05:14:58;;;;;;;4.90;4.20;;;22.50;99.90;;;23.21;90.67;100525.91;4984767;28;20750;-65
2023/08/18 05:17:25;;;;;;;6.33;4.80;;;22.70;99.90;;;23.43;90.49;100526.66;4995417;28;20636;-66
2023/08/18 05:19:52;;;;;;;5.60;4.97;;;22.90;99.90;;;23.60;89.13;100518.16;4987495;28;21003;-64
2023/08/18 05:22:21;;;;;;;12.10;6.03;;;23.10;99.90;;;23.86;87.83;100523.63;4986942;28;20734;-65
2023/08/18 05:24:48;;;;;;;7.03;4.93;;;23.30;99.90;;;24.13;85.95;100529.91;4989481;28;20618;-65
2023/08/18 05:27:16;;;;;;;12.80;5.37;;;23.50;99.90;;;24.40;83.88;100528.97;4989200;28;21222;-65
2023/08/18 05:29:43;;;;;;;5.80;5.10;;;23.80;99.90;;;24.56;82.22;100531.25;4997067;28;21318;-65
2023/08/18 05:32:10;;;;;;;5.50;5.00;;;24.00;99.90;;;24.80;81.05;100524.53;4964758;28;20670;-64
2023/08/18 05:34:37;;;;;;;11.60;5.50;;;24.20;99.90;;;25.05;80.36;100527.38;4964453;28;20766;-66
2023/08/18 05:37:04;;;;;;;4.90;4.40;;;24.40;99.90;;;25.28;78.87;100541.13;4984091;28;20630;-64
2023/08/18 05:39:31;;;;;;;5.20;4.70;;;24.70;99.90;;;25.47;78.02;100540.28;4958413;28;20642;-63
2023/08/18 05:41:58;;;;;;;6.20;5.13;;;24.90;99.90;;;25.73;77.07;100534.88;4961925;28;20686;-64
2023/08/18 05:44:25;;;;;;;5.33;4.47;;;25.20;99.90;;;26.11;75.85;100543.81;4962214;28;20726;-64
2023/08/18 05:46:52;;;;;;;5.97;5.27;;;25.50;99.90;;;26.53;74.14;100538.84;4969031;28;20714;-66
2023/08/18 05:49:20;;;;;;;5.27;4.77;;;25.80;99.90;;;26.93;72.02;100540.22;4991204;28;20650;-63
2023/08/18 05:51:47;;;;;;;6.23;5.10;;;26.30;99.90;;;27.39;70.72;100532.59;4978497;28;20691;-65
2023/08/18 05:54:15;;;;;;;4.83;4.43;;;26.70;99.90;;;27.82;67.70;100535.22;4977639;28;20804;-64
2023/08/18 05:56:42;;;;;;;5.33;4.77;;;27.10;99.90;;;28.02;67.06;100535.84;4985634;28;20642;-64
2023/08/18 05:59:09;;;;;;;5.77;5.17;;;27.40;99.90;;;28.14;67.13;100531.34;4976960;28;20634;-63
2023/08/18 06:01:36;;;;;;;7.37;5.03;;;27.60;99.90;;;28.62;65.48;100531.31;4974454;28;20732;-64
2023/08/18 06:04:03;;;;;;;9.80;4.90;;;27.90;99.90;;;29.13;63.94;100534.16;4973876;28;21086;-65
2023/08/18 06:06:30;;;;;;;6.33;5.63;;;28.40;99.90;;;29.58;62.67;100545.13;4975715;28;20634;-67
2023/08/18 06:08:57;;;;;;;7.00;5.77;;;28.90;99.90;;;29.88;60.77;100547.66;4978944;28;20645;-68
2023/08/18 06:11:24;;;;;;;5.80;5.20;;;29.30;99.90;;;30.23;59.53;100553.78;4982873;28;20673;-67
2023/08/18 06:13:51;;;;;;;5.07;4.63;;;29.60;99.90;;;30.69;57.90;100552.72;4988163;28;20649;-66
2023/08/18 06:16:18;;;;;;;6.30;4.60;;;30.00;99.90;;;31.24;56.24;100548.25;4986184;28;20631;-66
2023/08/18 06:18:45;;;;;;;5.43;4.87;;;30.50;99.90;;;31.80;55.04;100555.28;4980218;28;20694;-67
2023/08/18 06:21:12;;;;;;;6.47;5.17;;;31.10;99.90;;;32.41;53.50;100556.00;4979936;28;21238;-65
2023/08/18 06:23:39;;;;;;;5.13;4.70;;;31.70;99.90;;;32.90;51.29;100562.97;4979450;28;20657;-67
2023/08/18 06:26:06;;;;;;;5.77;5.17;;;32.30;99.90;;;33.34;51.34;100553.56;4991101;28;21266;-68
2023/08/18 06:28:32;;;;;;;5.10;4.70;;;32.70;99.90;;;34.01;49.50;100561.00;4986717;28;20634;-69
2023/08/18 06:31:04;;;;;;;4.83;4.43;;;33.30;99.90;;;34.54;48.04;100562.50;4998100;28;20796;-64
2023/08/18 06:33:32;;;;;;;7.60;3.93;;;33.90;99.90;;;34.98;47.06;100569.81;4957590;28;20679;-68
2023/08/18 06:35:59;;;;;;;5.43;4.93;;;34.30;99.90;;;35.43;46.53;100579.00;4973736;28;21060;-67
2023/08/18 06:38:26;;;;;;;5.60;5.10;;;34.80;99.90;;;35.84;45.11;100580.53;4978274;28;21254;-67
2023/08/18 06:40:53;;;;;;;4.67;4.27;;;35.20;98.80;;;36.21;44.30;100589.06;4990500;28;20646;-68
2023/08/18 06:43:20;;;;;;;5.53;5.03;;;35.70;97.70;;;36.50;43.65;100589.22;4982385;28;20725;-67
2023/08/18 06:45:47;;;;;;;5.13;4.63;;;35.90;96.70;;;36.92;43.33;100591.34;4980657;28;20673;-67
2023/08/18 06:48:14;;;;;;;5.70;5.30;;;36.30;95.90;;;37.46;42.12;100588.44;4982100;28;21258;-67
2023/08/18 06:50:42;;;;;;;4.63;4.23;;;36.70;94.70;;;37.69;40.86;100585.72;4991037;28;20710;-67
2023/08/18 06:53:09;;;;;;;4.13;3.80;;;37.10;93.60;;;37.63;41.00;100578.69;4981484;28;20763;-68
2023/08/18 06:55:36;;;;;;;4.53;4.23;;;37.10;92.90;;;37.74;41.60;100580.19;4989193;28;20803;-69
2023/08/18 06:58:17;;;;;;;5.20;4.70;;;37.10;92.70;;;38.10;40.64;100586.00;4970450;28;20702;-68
2023/08/18 07:00:45;;;;;;;4.97;4.67;;;37.30;92.00;;;38.03;40.44;100591.03;4986614;28;20740;-69
2023/08/18 07:03:12;;;;;;;5.07;4.67;;;37.30;91.50;;;38.01;39.91;100585.06;4972218;28;21204;-67
2023/08/18 07:05:39;;;;;;;6.87;4.93;;;37.30;91.10;;;38.12;40.10;100589.28;4975172;28;21673;-69
2023/08/18 07:08:07;;;;;;;5.17;4.77;;;37.30;91.00;;;38.13;40.07;100585.44;4972442;28;20702;-68
2023/08/18 07:10:34;;;;;;;4.73;4.33;;;37.50;90.50;;;37.84;40.70;100588.28;4978849;28;20757;-68
2023/08/18 07:13:00;;;;;;;4.93;4.53;;;37.50;89.80;;;37.80;40.33;100587.22;4977105;28;20673;-67
2023/08/18 07:15:27;;;;;;;5.23;4.83;;;37.40;89.50;;;37.76;41.05;100593.53;4965133;28;20667;-69
2023/08/18 07:17:54;;;;;;;5.70;5.20;;;37.40;89.40;;;37.98;39.97;100589.19;4987006;28;20659;-68
2023/08/18 07:20:23;;;;;;;5.17;4.77;;;37.50;88.50;;;38.15;40.39;100579.69;4970549;28;20998;-67
2023/08/18 07:22:50;;;;;;;5.47;5.10;;;37.70;88.10;;;38.23;39.76;100593.47;4982119;28;20653;-67
2023/08/18 07:25:17;;;;;;;5.50;5.10;;;37.80;87.60;;;38.35;39.23;100598.53;4986131;28;21254;-67
2023/08/18 07:27:44;;;;;;;4.43;4.13;;;37.90;86.70;;;38.42;39.28;100593.53;4987073;28;20641;-68
2023/08/18 07:30:11;;;;;;;5.63;4.97;;;38.00;86.00;;;38.53;38.81;100594.97;4983124;28;21302;-68
2023/08/18 07:32:39;;;;;;;4.73;4.40;;;38.10;85.40;;;38.93;38.62;100599.00;4987820;28;21069;-67
2023/08/18 07:35:08;;;;;;;5.67;4.90;;;38.40;84.80;;;38.93;38.35;100601.75;4991823;28;20673;-68
2023/08/18 07:37:35;;;;;;;4.80;4.40;;;38.50;83.30;;;39.24;38.46;100597.41;4975871;28;20678;-68
2023/08/18 07:40:22;;;;;;;11.80;5.80;;;38.80;83.50;;;39.78;37.56;100596.66;4990865;28;20653;-69
2023/08/18 07:42:49;;;;;;;4.47;3.80;;;39.20;82.30;;;39.74;37.35;100599.16;4977901;28;20642;-68
2023/08/18 07:45:15;;;;;;;4.77;4.40;;;39.40;80.70;;;40.04;37.00;100597.78;4987322;28;20635;-67
2023/08/18 07:47:44;;;;;;;4.60;3.40;;;39.70;80.30;;;40.01;36.98;100596.47;4981303;28;20649;-70
2023/08/18 07:50:12;;;;;;;4.83;4.43;;;39.80;79.30;;;40.22;36.80;100591.34;4991032;28;20650;-68
2023/08/18 07:52:41;;;;;;;4.30;4.07;;;39.90;78.90;;;40.39;36.63;100596.97;4985069;28;20634;-67
2023/08/18 07:55:09;;;;;;;4.60;4.30;;;40.20;77.80;;;40.50;36.14;100597.59;4982675;28;21305;-67
2023/08/18 07:57:39;;;;;;;4.20;3.90;;;40.30;77.20;;;40.57;36.14;100604.22;4968828;28;20654;-68
2023/08/18 08:00:11;;;;;;;4.90;4.57;;;40.50;76.00;;;40.50;35.69;100601.13;4995681;28;20658;-68
2023/08/18 08:02:38;;;;;;;4.50;3.90;;;40.50;74.80;;;40.65;35.21;100602.69;4971447;28;20638;-68
2023/08/18 08:05:06;;;;;;;6.63;4.40;;;40.70;74.30;;;40.62;35.01;100604.13;4977445;28;20642;-68
2023/08/18 08:07:34;;;;;;;4.70;4.30;;;40.70;73.50;;;40.48;35.46;100600.63;4995684;28;20726;-68
2023/08/18 08:10:05;;;;;;;5.83;5.33;;;40.70;73.10;;;40.76;35.65;100607.59;4988508;28;21243;-67
2023/08/18 08:12:39;;;;;;;4.50;4.20;;;40.90;73.10;;;41.28;34.20;100599.75;4984574;28;20638;-68
2023/08/18 08:15:09;;;;;;;5.43;5.10;;;41.30;71.80;;;41.55;33.79;100611.31;4987621;28;21184;-70
2023/08/18 08:17:36;;;;;;;4.70;4.30;;;41.70;70.70;;;42.07;32.81;100598.63;4983467;28;21097;-67
2023/08/18 08:20:16;;;;;;;5.73;5.33;;;42.10;69.10;;;42.45;32.36;100607.88;4990110;28;20730;-68
2023/08/18 08:22:46;;;;;;;5.40;5.00;;;42.50;68.50;;;42.82;31.73;100614.66;4984265;28;20654;-68
2023/08/18 08:25:14;;;;;;;6.60;6.20;;;42.90;66.50;;;43.12;31.08;100615.59;4982827;28;20711;-68
2023/08/18 08:27:41;;;;;;;5.00;4.70;;;43.20;65.60;;;43.42;30.62;100609.06;4973217;28;20666;-67
2023/08/18 08:30:12;;;;;;;5.33;4.93;;;43.50;64.80;;;43.52;30.34;100605.94;4985931;28;20661;-71
2023/08/18 08:32:52;;;;;;;6.30;5.80;;;43.60;63.70;;;43.40;30.46;100605.84;4979505;28;20698;-67
2023/08/18 08:35:19;;;;;;;5.73;5.43;;;43.60;63.10;;;43.47;30.35;100608.06;4980150;28;20673;-68
2023/08/18 08:37:46;;;;;;;7.90;5.73;;;43.70;62.90;;;43.68;30.20;100604.25;4968333;28;20678;-68
2023/08/18 08:40:19;;;;;;;6.40;5.90;;;43.90;62.10;;;43.88;29.66;100609.00;4977520;28;20663;-66
2023/08/18 08:42:48;;;;;;;6.20;5.80;;;44.20;61.70;;;44.29;29.38;100605.50;4967533;28;20651;-66
2023/08/18 08:45:15;;;;;;;5.87;5.47;;;44.50;60.90;;;44.50;28.77;100600.03;4993940;28;20636;-69
2023/08/18 08:47:43;;;;;;;5.70;5.30;;;44.70;60.20;;;44.58;28.67;100601.88;4977191;28;20649;-68
2023/08/18 08:50:13;;;;;;;7.03;6.07;;;44.80;59.40;;;44.73;28.19;100604.00;4989871;28;20695;-68
2023/08/18 08:52:42;;;;;;;4.60;4.30;;;44.90;58.70;;;44.98;28.33;100599.44;4985135;28;20714;-69
2023/08/18 08:55:13;;;;;;;5.07;4.77;;;45.10;58.60;;;45.44;27.68;100601.00;4975056;28;20665;-71
2023/08/18 08:57:41;;;;;;;4.97;4.67;;;45.40;57.80;;;45.68;27.06;100609.31;4974951;28;20650;-67
2023/08/18 09:00:10;;;;;;;5.67;5.17;;;45.50;57.50;;;45.74;27.71;100605.19;5002916;28;20647;-65
2023/08/18 09:02:39;;;;;;;4.50;4.10;;;45.60;57.50;;;45.77;27.00;100594.25;4998539;28;20686;-72
2023/08/18 09:05:07;;;;;;;4.90;4.40;;;45.70;57.30;;;45.69;27.40;100600.69;4989373;28;20724;-67
2023/08/18 09:07:33;;;;;;;5.50;5.10;;;45.40;56.80;;;44.89;27.70;100594.03;4975120;28;21086;-68
2023/08/18 09:10:00;;;;;;;8.90;7.30;;;44.70;57.20;;;43.87;29.55;100598.34;4990158;28;20654;-67
2023/08/18 09:12:28;;;;;;;6.27;5.73;;;43.70;58.70;;;42.87;31.15;100594.50;4976176;28;20630;-67
2023/08/18 09:14:59;;;;;;;4.80;4.50;;;42.60;60.00;;;41.78;32.11;100590.16;4989560;28;21314;-67
2023/08/18 09:17:28;;;;;;;6.20;5.60;;;41.40;61.00;;;40.37;34.60;100584.72;4973583;28;21064;-67
2023/08/18 09:19:59;;;;;;;7.80;6.70;;;40.10;62.80;;;39.29;36.41;100584.44;4995494;28;20642;-68
2023/08/18 09:22:28;;;;;;;5.70;5.23;;;39.00;64.80;;;38.34;37.69;100584.09;4989857;28;20633;-68
2023/08/18 09:24:58;;;;;;;7.23;6.63;;;38.00;66.10;;;37.51;38.88;100578.28;4980406;28;20702;-68
2023/08/18 09:27:25;;;;;;;11.03;4.87;;;37.10;67.80;;;36.95;40.47;100572.56;4976807;28;20643;-69
2023/08/18 09:29:54;;;;;;;7.07;6.10;;;36.50;69.30;;;36.40;40.35;100572.91;4968241;28;20646;-68
2023/08/18 09:32:22;;;;;;;5.33;4.37;;;36.00;69.70;;;35.78;41.42;100559.91;4973517;28;21006;-65
2023/08/18 09:34:50;;;;;;;6.27;5.00;;;35.30;70.20;;;35.36;41.52;100562.19;4973541;28;20670;-68
2023/08/18 09:37:31;;;;;;;7.57;6.10;;;34.80;70.70;;;34.81;41.82;100558.44;4980556;28;20642;-69
2023/08/18 09:40:01;;;;;;;7.10;5.17;;;34.30;71.30;;;34.46;43.35;100557.56;4990368;28;21219;-67
2023/08/18 09:42:28;;;;;;;5.33;4.73;;;33.90;72.70;;;34.24;43.83;100555.09;5003602;28;20725;-70
2023/08/18 09:44:56;;;;;;;5.10;4.70;;;33.60;73.40;;;33.99;44.96;100552.28;4995988;28;20639;-71
2023/08/18 09:47:28;;;;;;;7.30;5.33;;;33.40;74.90;;;33.78;46.11;100545.97;4983450;28;21151;-67
2023/08/18 09:49:58;;;;;;;7.77;4.20;;;33.20;76.60;;;33.61;46.14;100548.06;4989337;28;21416;-67
2023/08/18 09:52:28;;;;;;;5.50;5.00;;;33.00;76.80;;;33.39;45.84;100542.75;4990219;28;20645;-66
2023/08/18 09:55:09;;;;;;;4.97;4.47;;;32.70;77.10;;;33.18;45.88;100551.03;5006942;28;20653;-67
2023/08/18 09:58:00;;;;;;;6.33;4.70;;;32.50;76.70;;;33.00;46.08;100546.84;4980610;28;20642;-67
2023/08/18 10:00:28;;;;;;;4.37;3.47;;;32.30;77.40;;;32.93;44.32;100538.09;4986730;28;20669;-66
2023/08/18 10:03:03;;;;;;;4.07;3.33;;;32.20;75.50;;;32.89;44.38;100542.41;4978745;28;20639;-65
2023/08/18 10:05:31;;;;;;;6.20;4.00;;;32.10;75.30;;;32.94;44.85;100541.63;4980671;28;20691;-67
2023/08/18 10:07:59;;;;;;;8.13;3.70;;;32.20;75.90;;;33.10;45.42;100544.22;4998252;28;20646;-67
2023/08/18 10:10:26;;;;;;;3.43;3.00;;;32.30;76.80;;;33.29;42.44;100537.31;4993370;28;20745;-67
2023/08/18 10:12:53;;;;;;;3.83;3.63;;;32.60;73.60;;;33.74;41.42;100538.63;4995526;28;21017;-67
2023/08/18 10:15:21;;;;;;;3.13;2.93;;;33.10;72.80;;;34.22;40.26;100541.00;4991953;28;20688;-67
2023/08/18 10:17:48;;;;;;;3.80;3.60;;;33.60;72.00;;;34.64;39.27;100543.53;4988427;28;20735;-67